createdAt,value
2018-08-13T00:01:58.731Z,1.97
2018-08-13T00:04:29.287Z,1.40
2018-08-13T00:06:59.780Z,1.70
2018-08-13T00:09:35.272Z,1.80
2018-08-13T00:12:05.880Z,1.67
2018-08-13T00:14:36.393Z,1.67
2018-08-13T00:17:06.994Z,1.80
2018-08-13T00:19:37.741Z,1.60
2018-08-13T00:22:08.191Z,1.70
2018-08-13T00:24:38.755Z,1.30
2018-08-13T00:27:09.289Z,2.00
2018-08-13T00:29:39.895Z,1.50
2018-08-13T00:32:10.294Z,2.10
2018-08-13T00:34:40.711Z,1.70
2018-08-13T00:37:11.212Z,1.83
2018-08-13T00:39:41.791Z,1.90
2018-08-13T00:42:12.352Z,2.03
2018-08-13T00:44:42.962Z,1.73
2018-08-13T00:47:13.533Z,2.20
2018-08-13T00:49:44.138Z,1.77
2018-08-13T00:52:14.605Z,1.60
2018-08-13T00:54:45.323Z,2.47
2018-08-13T00:57:15.886Z,1.93
2018-08-13T00:59:46.367Z,1.90
2018-08-13T01:02:16.721Z,2.07
2018-08-13T01:04:47.365Z,2.00
2018-08-13T01:07:17.808Z,1.97
2018-08-13T01:09:48.394Z,2.10
2018-08-13T01:12:18.952Z,2.20
2018-08-13T01:14:49.585Z,2.30
2018-08-13T01:17:20.048Z,1.97
2018-08-13T01:19:50.437Z,1.90
2018-08-13T01:22:20.937Z,2.80
2018-08-13T01:24:51.570Z,2.13
2018-08-13T01:27:27.140Z,1.80
2018-08-13T01:29:57.409Z,2.33
2018-08-13T01:32:28.156Z,2.43
2018-08-13T01:34:58.926Z,2.33
2018-08-13T01:37:29.675Z,2.30
2018-08-13T01:40:00.335Z,2.23
2018-08-13T01:42:30.715Z,2.30
2018-08-13T01:45:01.282Z,3.03
2018-08-13T01:47:31.913Z,2.50
2018-08-13T01:50:02.419Z,2.53
2018-08-13T01:52:33.085Z,2.33
2018-08-13T01:55:03.666Z,2.50
2018-08-13T01:57:34.339Z,2.23
2018-08-13T02:00:06.568Z,1.90
2018-08-13T02:02:36.941Z,2.37
2018-08-13T02:05:08.043Z,1.93
2018-08-13T02:07:38.995Z,2.50
2018-08-13T02:10:11.708Z,2.37
2018-08-13T02:12:42.546Z,2.10
2018-08-13T02:15:13.215Z,2.30
2018-08-13T02:17:43.805Z,2.23
2018-08-13T02:20:14.486Z,2.40
2018-08-13T02:22:45.224Z,2.50
2018-08-13T02:25:15.733Z,2.20
2018-08-13T02:27:46.332Z,2.37
2018-08-13T02:30:17.026Z,2.60
2018-08-13T02:32:47.609Z,2.30
2018-08-13T02:35:18.053Z,2.93
2018-08-13T02:37:48.500Z,2.07
2018-08-13T02:40:19.044Z,2.93
2018-08-13T02:42:49.670Z,2.47
2018-08-13T02:45:20.239Z,2.30
2018-08-13T02:47:50.860Z,3.03
2018-08-13T02:50:21.291Z,1.80
2018-08-13T02:52:51.826Z,2.47
2018-08-13T02:55:22.305Z,2.33
2018-08-13T02:57:52.636Z,2.00
2018-08-13T03:00:23.136Z,2.70
2018-08-13T03:02:53.618Z,1.97
2018-08-13T03:05:24.208Z,2.10
2018-08-13T03:07:54.778Z,2.53
2018-08-13T03:10:25.486Z,2.40
2018-08-13T03:12:55.776Z,1.97
2018-08-13T03:15:26.285Z,2.27
2018-08-13T03:17:56.870Z,2.20
2018-08-13T03:20:27.473Z,2.40
2018-08-13T03:22:58.045Z,2.13
2018-08-13T03:25:28.641Z,2.33
2018-08-13T03:27:59.213Z,2.10
2018-08-13T03:30:29.812Z,2.00
2018-08-13T03:33:00.407Z,2.20
2018-08-13T03:35:30.815Z,2.03
2018-08-13T03:38:01.143Z,2.20
2018-08-13T03:40:31.660Z,2.03
2018-08-13T03:43:02.275Z,2.20
2018-08-13T03:45:32.930Z,2.63
2018-08-13T03:48:03.446Z,2.00
2018-08-13T03:50:34.067Z,2.30
2018-08-13T03:53:04.697Z,2.70
2018-08-13T03:55:35.212Z,2.47
2018-08-13T03:58:05.901Z,2.43
2018-08-13T04:00:36.359Z,2.50
2018-08-13T04:03:07.495Z,2.70
2018-08-13T04:05:37.962Z,2.93
2018-08-13T04:08:08.711Z,2.57
2018-08-13T04:10:39.367Z,2.50
2018-08-13T04:13:10.033Z,3.07
2018-08-13T04:15:40.707Z,3.03
2018-08-13T04:18:11.502Z,2.90
2018-08-13T04:20:42.204Z,2.90
2018-08-13T04:23:12.793Z,2.70
2018-08-13T04:25:43.378Z,2.87
2018-08-13T04:28:13.844Z,2.93
2018-08-13T04:30:44.384Z,2.83
2018-08-13T04:33:14.806Z,2.70
2018-08-13T04:35:45.410Z,2.63
2018-08-13T04:38:15.953Z,2.87
2018-08-13T04:40:46.477Z,2.90
2018-08-13T04:43:17.144Z,2.80
2018-08-13T04:45:47.629Z,2.67
2018-08-13T04:48:17.694Z,2.80
2018-08-13T04:50:47.840Z,2.70
2018-08-13T04:53:18.252Z,2.90
2018-08-13T04:55:48.736Z,2.60
2018-08-13T04:58:18.800Z,2.47
2018-08-13T05:00:49.394Z,2.50
2018-08-13T05:03:19.873Z,2.20
2018-08-13T05:05:50.455Z,2.53
2018-08-13T05:08:21.011Z,2.90
2018-08-13T05:10:51.792Z,2.40
2018-08-13T05:13:22.420Z,2.83
2018-08-13T05:15:52.944Z,3.47
2018-08-13T05:18:23.267Z,3.33
2018-08-13T05:20:53.845Z,3.67
2018-08-13T05:23:24.316Z,3.70
2018-08-13T05:25:54.933Z,3.03
2018-08-13T05:28:25.437Z,3.30
2018-08-13T05:30:56.067Z,3.20
2018-08-13T05:33:26.579Z,3.00
2018-08-13T05:35:57.132Z,2.80
2018-08-13T05:38:27.349Z,2.87
2018-08-13T05:40:57.808Z,2.70
2018-08-13T05:43:28.384Z,2.90
2018-08-13T05:45:59.008Z,2.70
2018-08-13T05:48:29.693Z,2.77
2018-08-13T05:51:00.275Z,2.57
2018-08-13T05:53:30.832Z,2.97
2018-08-13T05:56:01.405Z,3.07
2018-08-13T05:58:31.908Z,2.30
2018-08-13T06:01:02.508Z,3.10
2018-08-13T06:03:33.288Z,2.50
2018-08-13T06:06:04.028Z,3.07
2018-08-13T06:08:34.542Z,2.50
2018-08-13T06:11:05.288Z,3.70
2018-08-13T06:13:35.936Z,2.83
2018-08-13T06:16:06.517Z,2.90
2018-08-13T06:18:37.104Z,3.30
2018-08-13T06:21:07.724Z,3.17
2018-08-13T06:23:38.203Z,3.70
2018-08-13T06:26:08.899Z,3.03
2018-08-13T06:28:39.412Z,5.57
2018-08-13T06:31:10.059Z,6.43
2018-08-13T06:33:40.599Z,5.20
2018-08-13T06:36:11.083Z,5.03
2018-08-13T06:38:41.772Z,5.97
2018-08-13T06:41:12.459Z,5.60
2018-08-13T06:43:43.204Z,6.23
2018-08-13T06:46:13.919Z,5.90
2018-08-13T06:48:44.519Z,5.90
2018-08-13T06:51:14.928Z,5.57
2018-08-13T06:53:45.440Z,5.40
2018-08-13T06:56:16.040Z,5.10
2018-08-13T06:58:46.635Z,5.53
2018-08-13T07:01:17.269Z,4.53
2018-08-13T07:03:47.783Z,5.47
2018-08-13T07:06:18.391Z,5.10
2018-08-13T07:08:48.949Z,4.67
2018-08-13T07:11:19.502Z,4.37
2018-08-13T07:13:50.035Z,3.33
2018-08-13T07:16:20.724Z,3.47
2018-08-13T07:18:51.233Z,3.33
2018-08-13T07:21:21.831Z,3.73
2018-08-13T07:23:52.334Z,3.77
2018-08-13T07:26:22.766Z,3.47
2018-08-13T07:28:53.132Z,3.50
2018-08-13T07:31:23.602Z,2.97
2018-08-13T07:33:54.204Z,2.90
2018-08-13T07:36:24.766Z,2.40
2018-08-13T07:38:55.353Z,2.80
2018-08-13T07:41:25.789Z,2.13
2018-08-13T07:43:56.283Z,2.60
2018-08-13T07:46:26.853Z,2.83
2018-08-13T07:48:57.342Z,2.67
2018-08-13T07:51:28.022Z,2.17
2018-08-13T07:53:58.578Z,2.57
2018-08-13T07:56:29.178Z,2.23
2018-08-13T07:58:59.842Z,3.10
2018-08-13T08:01:30.435Z,2.10
2018-08-13T08:04:00.791Z,2.10
2018-08-13T08:06:31.254Z,2.60
2018-08-13T08:09:01.713Z,2.40
2018-08-13T08:11:32.342Z,2.30
2018-08-13T08:14:02.956Z,3.30
2018-08-13T08:16:33.637Z,3.00
2018-08-13T08:19:04.315Z,3.10
2018-08-13T08:21:35.005Z,3.20
2018-08-13T08:24:05.692Z,3.10
2018-08-13T08:26:36.383Z,2.80
2018-08-13T08:29:08.270Z,4.03
2018-08-13T08:31:38.871Z,3.47
2018-08-13T08:34:10.608Z,4.13
2018-08-13T08:36:41.206Z,4.00
2018-08-13T08:39:13.866Z,3.60
2018-08-13T08:41:44.979Z,3.50
2018-08-13T08:44:15.372Z,3.97
2018-08-13T08:46:45.964Z,3.20
2018-08-13T08:49:16.463Z,3.37
2018-08-13T08:51:47.167Z,3.30
2018-08-13T08:54:17.509Z,3.60
2018-08-13T08:56:47.885Z,3.60
2018-08-13T08:59:18.364Z,3.47
2018-08-13T09:01:48.942Z,3.53
2018-08-13T09:04:20.441Z,2.80
2018-08-13T09:06:50.904Z,3.27
2018-08-13T09:09:21.092Z,2.70
2018-08-13T09:11:51.676Z,2.43
2018-08-13T09:14:22.200Z,1.80
2018-08-13T09:16:53.820Z,1.50
2018-08-13T09:19:41.256Z,1.50
2018-08-13T09:22:28.184Z,1.50
2018-08-13T09:25:15.222Z,1.60
2018-08-13T09:28:02.183Z,1.57
2018-08-13T09:30:49.183Z,1.40
2018-08-13T09:33:35.992Z,1.50
2018-08-13T09:36:06.547Z,1.80
2018-08-13T09:38:37.121Z,3.13
2018-08-13T09:41:07.646Z,2.10
2018-08-13T09:43:38.373Z,1.80
2018-08-13T09:46:09.236Z,1.90
2018-08-13T09:48:39.860Z,2.00
2018-08-13T09:51:10.456Z,2.00
2018-08-13T09:53:41.062Z,1.80
2018-08-13T09:56:11.718Z,1.70
2018-08-13T09:58:42.404Z,1.40
2018-08-13T10:01:13.558Z,1.80
2018-08-13T10:03:44.199Z,2.20
2018-08-13T10:06:14.676Z,1.77
2018-08-13T10:08:45.247Z,1.70
2018-08-13T10:11:15.938Z,1.90
2018-08-13T10:13:46.649Z,1.60
2018-08-13T10:16:17.186Z,1.90
2018-08-13T10:18:47.896Z,1.70
2018-08-13T10:21:18.476Z,1.33
2018-08-13T10:23:57.144Z,1.53
2018-08-13T10:26:27.884Z,1.70
2018-08-13T10:28:58.383Z,1.20
2018-08-13T10:31:29.009Z,2.10
2018-08-13T10:33:59.461Z,1.60
2018-08-13T10:36:31.249Z,1.50
2018-08-13T10:39:01.772Z,1.97
2018-08-13T10:41:32.256Z,1.60
2018-08-13T10:44:02.862Z,1.80
2018-08-13T10:46:33.411Z,2.03
2018-08-13T10:49:04.428Z,1.87
2018-08-13T10:51:35.029Z,1.87
2018-08-13T10:54:05.764Z,1.57
2018-08-13T10:56:36.377Z,1.57
2018-08-13T10:59:07.261Z,1.50
2018-08-13T11:01:37.844Z,1.50
2018-08-13T11:04:08.555Z,1.60
2018-08-13T11:06:39.226Z,1.97
2018-08-13T11:09:11.559Z,1.67
2018-08-13T11:11:42.133Z,1.63
2018-08-13T11:14:12.544Z,1.33
2018-08-13T11:16:43.244Z,1.90
2018-08-13T11:19:13.775Z,1.80
2018-08-13T11:21:44.375Z,1.80
2018-08-13T11:24:14.924Z,2.40
2018-08-13T11:26:45.582Z,2.13
2018-08-13T11:29:16.194Z,1.90
2018-08-13T11:31:46.805Z,2.07
2018-08-13T11:34:17.503Z,1.83
2018-08-13T11:36:48.081Z,1.90
2018-08-13T11:39:18.745Z,2.03
2018-08-13T11:41:49.344Z,2.10
2018-08-13T11:44:19.939Z,2.00
2018-08-13T11:46:50.332Z,1.50
2018-08-13T11:49:20.800Z,1.40
2018-08-13T11:51:51.352Z,1.47
2018-08-13T11:54:22.011Z,2.17
2018-08-13T11:56:52.564Z,1.40
2018-08-13T11:59:23.397Z,1.73
2018-08-13T12:01:53.920Z,1.67
2018-08-13T12:04:24.411Z,2.30
2018-08-13T12:06:54.977Z,1.60
2018-08-13T12:09:25.636Z,1.70
2018-08-13T12:11:56.248Z,1.70
2018-08-13T12:14:26.638Z,1.50
2018-08-13T12:16:56.871Z,2.03
2018-08-13T12:19:27.485Z,1.60
2018-08-13T12:21:58.076Z,1.80
2018-08-13T12:24:28.672Z,1.30
2018-08-13T12:26:59.035Z,1.80
2018-08-13T12:29:29.536Z,1.50
2018-08-13T12:32:00.115Z,1.60
2018-08-13T12:34:30.546Z,1.50
2018-08-13T12:37:06.130Z,1.80
2018-08-13T12:39:36.815Z,2.20
2018-08-13T12:42:08.316Z,1.40
2018-08-13T12:44:39.047Z,1.40
2018-08-13T12:47:09.859Z,1.80
2018-08-13T12:49:41.464Z,1.40
2018-08-13T12:52:12.050Z,1.53
2018-08-13T12:54:42.728Z,2.03
2018-08-13T12:57:13.440Z,2.10
2018-08-13T12:59:45.949Z,1.47
2018-08-13T13:02:16.580Z,1.87
2018-08-13T13:04:47.339Z,2.53
2018-08-13T13:07:17.820Z,2.30
2018-08-13T13:09:48.492Z,2.00
2018-08-13T13:12:19.076Z,2.00
2018-08-13T13:14:49.415Z,2.10
2018-08-13T13:17:19.934Z,2.03
2018-08-13T13:19:50.634Z,1.90
2018-08-13T13:22:21.113Z,1.77
2018-08-13T13:24:51.775Z,2.30
2018-08-13T13:27:22.273Z,2.00
2018-08-13T13:29:52.868Z,1.53
2018-08-13T13:32:23.304Z,1.77
2018-08-13T13:34:54.028Z,1.77
2018-08-13T13:37:24.709Z,1.70
2018-08-13T13:39:55.198Z,1.80
2018-08-13T13:42:25.691Z,1.70
2018-08-13T13:44:56.130Z,1.90
2018-08-13T13:47:26.616Z,1.70
2018-08-13T13:49:57.236Z,1.90
2018-08-13T13:52:27.818Z,1.70
2018-08-13T13:54:58.658Z,2.10
2018-08-13T13:57:29.196Z,1.60
2018-08-13T13:59:59.764Z,1.60
2018-08-13T14:02:30.304Z,1.73
2018-08-13T14:05:00.851Z,1.63
2018-08-13T14:07:31.308Z,2.00
2018-08-13T14:10:01.923Z,1.93
2018-08-13T14:12:32.493Z,1.73
2018-08-13T14:15:03.160Z,1.60
2018-08-13T14:17:33.787Z,2.03
2018-08-13T14:20:04.460Z,1.60
2018-08-13T14:22:35.044Z,1.60
2018-08-13T14:25:06.376Z,1.60
2018-08-13T14:27:36.863Z,1.47
2018-08-13T14:30:13.000Z,1.70
2018-08-13T14:32:43.531Z,1.40
2018-08-13T14:35:14.145Z,1.40
2018-08-13T14:37:44.755Z,1.60
2018-08-13T14:40:15.387Z,1.53
2018-08-13T14:42:46.189Z,1.50
2018-08-13T14:45:18.061Z,1.57
2018-08-13T14:47:50.139Z,1.60
2018-08-13T14:50:20.865Z,1.50
2018-08-13T14:52:51.433Z,1.60
2018-08-13T14:55:23.349Z,1.70
2018-08-13T14:57:53.822Z,1.83
2018-08-13T15:00:34.347Z,2.07
2018-08-13T15:03:07.105Z,1.47
2018-08-13T15:05:37.788Z,1.40
2018-08-13T15:08:08.653Z,1.43
2018-08-13T15:10:39.152Z,1.80
2018-08-13T15:13:09.675Z,1.70
2018-08-13T15:15:40.293Z,1.97
2018-08-13T15:18:10.837Z,1.53
2018-08-13T15:20:41.829Z,1.20
2018-08-13T15:23:12.371Z,1.53
2018-08-13T15:25:43.001Z,1.50
2018-08-13T15:28:13.724Z,1.57
2018-08-13T15:30:44.321Z,1.20
2018-08-13T15:33:14.915Z,1.27
2018-08-13T15:35:45.758Z,1.33
2018-08-13T15:38:16.065Z,1.20
2018-08-13T15:40:46.584Z,1.20
2018-08-13T15:43:17.079Z,1.43
2018-08-13T15:45:47.610Z,0.93
2018-08-13T15:48:18.207Z,1.43
2018-08-13T15:50:48.865Z,1.10
2018-08-13T15:53:19.416Z,1.80
2018-08-13T15:55:49.841Z,1.40
2018-08-13T15:58:20.343Z,1.63
2018-08-13T16:00:50.930Z,1.50
2018-08-13T16:03:21.554Z,1.50
2018-08-13T16:05:52.215Z,1.33
2018-08-13T16:08:22.888Z,1.50
2018-08-13T16:10:53.411Z,1.70
2018-08-13T16:13:23.839Z,1.37
2018-08-13T16:15:54.327Z,3.33
2018-08-13T16:18:24.982Z,3.97
2018-08-13T16:20:55.574Z,5.57
2018-08-13T16:23:26.222Z,1.73
2018-08-13T16:25:56.804Z,1.70
2018-08-13T16:28:27.456Z,2.00
2018-08-13T16:30:58.020Z,2.80
2018-08-13T16:33:28.748Z,2.50
2018-08-13T16:35:59.413Z,2.07
2018-08-13T16:38:30.020Z,2.10
2018-08-13T16:41:00.554Z,2.57
2018-08-13T16:43:31.129Z,2.20
2018-08-13T16:46:01.801Z,2.60
2018-08-13T16:48:33.380Z,2.40
2018-08-13T16:51:04.061Z,2.37
2018-08-13T16:53:34.688Z,2.70
2018-08-13T16:56:05.478Z,2.20
2018-08-13T16:58:36.037Z,2.60
2018-08-13T17:01:06.758Z,2.97
2018-08-13T17:03:37.192Z,3.00
2018-08-13T17:06:07.979Z,2.93
2018-08-13T17:08:38.668Z,2.80
2018-08-13T17:11:09.331Z,3.00
2018-08-13T17:13:40.017Z,3.07
2018-08-13T17:16:11.392Z,3.03
2018-08-13T17:18:41.942Z,3.23
2018-08-13T17:21:12.636Z,2.87
2018-08-13T17:23:43.053Z,2.53
2018-08-13T17:26:13.636Z,2.77
2018-08-13T17:28:44.333Z,3.00
2018-08-13T17:31:14.895Z,3.77
2018-08-13T17:33:45.565Z,3.00
2018-08-13T17:36:16.155Z,3.50
2018-08-13T17:38:46.836Z,3.23
2018-08-13T17:41:17.523Z,3.40
2018-08-13T17:43:48.084Z,3.00
2018-08-13T17:46:18.855Z,3.30
2018-08-13T17:48:49.416Z,3.03
2018-08-13T17:51:21.052Z,3.30
2018-08-13T17:53:51.633Z,3.13
2018-08-13T17:56:22.114Z,3.00
2018-08-13T17:58:52.580Z,3.07
2018-08-13T18:01:23.145Z,3.33
2018-08-13T18:03:54.045Z,2.63
2018-08-13T18:06:24.512Z,3.00
2018-08-13T18:08:55.294Z,3.10
2018-08-13T18:11:25.821Z,3.40
2018-08-13T18:13:56.443Z,3.10
2018-08-13T18:16:27.200Z,2.90
2018-08-13T18:18:57.759Z,2.70
2018-08-13T18:21:28.348Z,3.10
2018-08-13T18:23:58.987Z,3.20
2018-08-13T18:26:31.573Z,3.40
2018-08-13T18:29:02.165Z,3.23
2018-08-13T18:31:32.596Z,2.90
2018-08-13T18:34:03.276Z,2.97
2018-08-13T18:36:33.879Z,2.50
2018-08-13T18:39:05.342Z,3.13
2018-08-13T18:41:35.954Z,2.57
2018-08-13T18:44:06.640Z,2.77
2018-08-13T18:46:37.285Z,3.30
2018-08-13T18:49:07.835Z,2.87
2018-08-13T18:51:38.481Z,3.00
2018-08-13T18:54:08.909Z,3.30
2018-08-13T18:56:39.597Z,3.20
2018-08-13T18:59:10.301Z,3.03
2018-08-13T19:01:41.050Z,3.00
2018-08-13T19:04:11.557Z,3.40
2018-08-13T19:06:42.255Z,3.20
2018-08-13T19:09:12.942Z,2.90
2018-08-13T19:11:43.582Z,2.97
2018-08-13T19:14:13.756Z,3.33
2018-08-13T19:16:44.413Z,2.77
2018-08-13T19:19:15.011Z,3.23
2018-08-13T19:21:45.612Z,3.30
2018-08-13T19:24:16.132Z,3.30
2018-08-13T19:26:46.674Z,3.20
2018-08-13T19:29:17.328Z,3.23
2018-08-13T19:31:48.882Z,3.27
2018-08-13T19:34:19.310Z,3.10
2018-08-13T19:36:49.833Z,3.30
2018-08-13T19:39:20.383Z,3.77
2018-08-13T19:41:50.767Z,3.27
2018-08-13T19:44:21.312Z,3.67
2018-08-13T19:46:51.732Z,4.20
2018-08-13T19:49:22.107Z,3.57
2018-08-13T19:51:52.611Z,4.67
2018-08-13T19:54:22.972Z,3.50
2018-08-13T19:56:53.479Z,3.80
2018-08-13T19:59:24.133Z,2.90
2018-08-13T20:01:54.738Z,3.83
2018-08-13T20:04:25.254Z,3.30
2018-08-13T20:06:55.803Z,3.77
2018-08-13T20:09:26.227Z,3.73
2018-08-13T20:11:57.859Z,4.20
2018-08-13T20:14:28.467Z,4.13
2018-08-13T20:16:58.973Z,3.63
2018-08-13T20:19:29.584Z,4.13
2018-08-13T20:22:01.520Z,4.27
2018-08-13T20:24:32.047Z,4.47
2018-08-13T20:27:02.624Z,3.37
2018-08-13T20:29:33.176Z,4.00
2018-08-13T20:32:03.841Z,4.40
2018-08-13T20:34:34.476Z,3.40
2018-08-13T20:37:05.081Z,3.80
2018-08-13T20:39:35.683Z,4.20
2018-08-13T20:42:06.219Z,3.87
2018-08-13T20:44:36.908Z,3.60
2018-08-13T20:47:07.410Z,4.20
2018-08-13T20:49:37.848Z,4.03
2018-08-13T20:52:08.261Z,3.50
2018-08-13T20:54:39.016Z,3.20
2018-08-13T20:57:09.458Z,3.43
2018-08-13T20:59:40.120Z,3.80
2018-08-13T21:02:10.722Z,3.33
2018-08-13T21:04:41.387Z,3.10
2018-08-13T21:07:12.028Z,3.50
2018-08-13T21:09:42.567Z,3.30
2018-08-13T21:12:13.133Z,3.93
2018-08-13T21:14:43.914Z,4.27
2018-08-13T21:17:14.510Z,4.00
2018-08-13T21:19:44.992Z,3.87
2018-08-13T21:22:15.576Z,3.37
2018-08-13T21:24:46.177Z,3.67
2018-08-13T21:27:16.835Z,4.43
2018-08-13T21:29:47.332Z,4.30
2018-08-13T21:32:17.756Z,4.50
2018-08-13T21:34:48.297Z,4.80
2018-08-13T21:37:18.840Z,4.87
2018-08-13T21:39:49.361Z,5.23
2018-08-13T21:42:19.960Z,5.23
2018-08-13T21:44:50.794Z,6.00
2018-08-13T21:47:21.315Z,5.97
2018-08-13T21:49:52.005Z,6.27
2018-08-13T21:52:22.687Z,6.83
2018-08-13T21:54:53.288Z,7.00
2018-08-13T21:57:25.040Z,6.23
2018-08-13T21:59:56.216Z,7.13
2018-08-13T22:02:27.556Z,6.80
2018-08-13T22:04:58.328Z,7.30
2018-08-13T22:07:28.855Z,7.03
2018-08-13T22:09:59.325Z,7.00
2018-08-13T22:12:29.929Z,7.73
2018-08-13T22:15:00.480Z,7.60
2018-08-13T22:17:31.151Z,7.70
2018-08-13T22:20:01.620Z,7.10
2018-08-13T22:22:32.127Z,7.40
2018-08-13T22:25:04.936Z,7.90
2018-08-13T22:27:35.385Z,7.23
2018-08-13T22:30:07.483Z,7.10
2018-08-13T22:32:38.098Z,7.03
2018-08-13T22:35:09.984Z,8.00
2018-08-13T22:37:41.760Z,7.63
2018-08-13T22:40:17.000Z,7.13
2018-08-13T22:42:47.681Z,8.73
2018-08-13T22:45:23.316Z,9.10
2018-08-13T22:47:53.821Z,10.20
2018-08-13T22:50:24.296Z,10.53
2018-08-13T22:52:55.038Z,10.60
2018-08-13T22:55:25.334Z,10.43
2018-08-13T22:57:56.008Z,12.43
2018-08-13T23:00:26.537Z,13.57
2018-08-13T23:02:57.139Z,12.80
2018-08-13T23:05:28.385Z,14.90
2018-08-13T23:07:58.924Z,14.30
2018-08-13T23:10:29.503Z,14.60
2018-08-13T23:13:00.128Z,14.50
2018-08-13T23:15:30.659Z,14.37
2018-08-13T23:18:01.341Z,13.60
2018-08-13T23:20:31.926Z,14.57
2018-08-13T23:23:03.453Z,13.07
2018-08-13T23:25:35.452Z,15.03
2018-08-13T23:28:11.307Z,15.03
2018-08-13T23:30:41.691Z,15.23
2018-08-13T23:33:12.188Z,14.90
2018-08-13T23:35:42.813Z,16.33
2018-08-13T23:38:13.355Z,16.47
2018-08-13T23:40:44.107Z,15.93
2018-08-13T23:43:14.576Z,16.93
2018-08-13T23:45:45.256Z,17.83
2018-08-13T23:48:16.083Z,17.83
2018-08-13T23:50:46.606Z,16.40
2018-08-13T23:53:18.155Z,17.30
2018-08-13T23:55:48.589Z,16.40
2018-08-13T23:58:19.180Z,18.37
